Time;durP1;ratioP1;P1;durP2;ratioP2;P2;SDS_P1;SDS_P2;PMS_P1;PMS_P2;Temp;Humidity;BMP_temperature;BMP_pressure;BME280_temperature;BME280_humidity;BME280_pressure;Samples;Min_cycle;Max_cycle;Signal;HPM_P1;HPM_P2
2021/01/22 00:00:26;;;;;;;16.77;2.15;;;5.60;99.90;;;;;;4993620;28;20026;-78
2021/01/22 00:02:52;;;;;;;5.20;1.73;;;5.60;99.90;;;;;;4992618;28;20466;-79
2021/01/22 00:05:17;;;;;;;6.57;1.88;;;5.60;99.90;;;;;;4978727;28;20023;-79
2021/01/22 00:07:43;;;;;;;12.30;2.25;;;5.50;99.90;;;;;;4974411;28;20403;-79
2021/01/22 00:10:09;;;;;;;12.60;2.35;;;5.60;99.90;;;;;;4974370;28;20049;-79
2021/01/22 00:12:35;;;;;;;7.70;1.92;;;5.50;99.90;;;;;;4973851;28;20042;-79
2021/01/22 00:15:01;;;;;;;10.45;2.33;;;5.50;99.90;;;;;;4972862;28;20081;-79
2021/01/22 00:17:26;;;;;;;9.85;2.30;;;5.50;99.90;;;;;;4974037;28;20023;-79
2021/01/22 00:19:52;;;;;;;3.92;1.38;;;5.50;99.90;;;;;;4974023;28;20047;-79
2021/01/22 00:22:17;;;;;;;7.80;2.63;;;5.50;99.90;;;;;;4972828;28;20030;-79
2021/01/22 00:24:43;;;;;;;14.50;2.50;;;5.50;99.90;;;;;;4973889;28;20494;-79
2021/01/22 00:27:08;;;;;;;8.70;2.55;;;5.50;99.90;;;;;;4972764;28;20026;-79
2021/01/22 00:29:34;;;;;;;9.27;1.90;;;5.50;99.90;;;;;;4972843;28;20035;-79
2021/01/22 00:31:59;;;;;;;12.80;2.30;;;5.50;99.90;;;;;;4972635;28;20027;-79
2021/01/22 00:34:25;;;;;;;8.68;2.15;;;5.50;99.90;;;;;;4973709;28;20451;-79
2021/01/22 00:36:51;;;;;;;7.07;1.70;;;5.50;99.90;;;;;;4973794;28;20031;-79
2021/01/22 00:39:16;;;;;;;13.25;2.45;;;5.50;99.90;;;;;;4972873;28;20023;-79
2021/01/22 00:41:42;;;;;;;8.25;1.73;;;5.50;99.90;;;;;;4972398;28;20019;-79
2021/01/22 00:44:07;;;;;;;9.43;2.33;;;5.40;99.90;;;;;;4973610;28;20377;-79
2021/01/22 00:46:33;;;;;;;8.48;2.17;;;5.40;99.90;;;;;;4973799;28;20373;-79
2021/01/22 00:48:58;;;;;;;7.88;3.20;;;5.30;99.90;;;;;;4973670;28;20031;-79
2021/01/22 00:51:24;;;;;;;15.05;2.30;;;5.30;99.90;;;;;;4972385;28;20031;-79
2021/01/22 00:53:49;;;;;;;15.00;2.17;;;5.30;99.90;;;;;;4973382;28;20455;-79
2021/01/22 00:56:15;;;;;;;14.18;2.55;;;5.20;99.90;;;;;;4972194;28;20039;-79
2021/01/22 00:58:40;;;;;;;4.25;2.15;;;5.10;99.90;;;;;;4972287;28;20061;-79
2021/01/22 01:01:06;;;;;;;7.07;1.48;;;5.10;99.90;;;;;;4971909;28;20135;-79
2021/01/22 01:03:32;;;;;;;17.10;2.20;;;5.10;99.90;;;;;;4972183;28;20075;-79
2021/01/22 01:05:58;;;;;;;10.40;2.42;;;5.10;99.90;;;;;;4973222;28;20472;-79
2021/01/22 01:08:23;;;;;;;23.58;2.83;;;5.00;99.90;;;;;;4973390;28;20027;-79
2021/01/22 01:10:49;;;;;;;8.13;2.00;;;5.00;99.90;;;;;;4973272;28;20031;-80
2021/01/22 01:13:14;;;;;;;12.93;2.60;;;5.00;99.90;;;;;;4972061;28;20026;-79
2021/01/22 01:15:40;;;;;;;22.95;2.70;;;4.90;99.90;;;;;;4972076;28;20030;-78
2021/01/22 01:18:05;;;;;;;10.63;2.50;;;4.90;99.90;;;;;;4973419;28;20031;-79
2021/01/22 01:20:31;;;;;;;16.27;2.38;;;4.90;99.90;;;;;;4973286;28;20022;-79
2021/01/22 01:22:58;;;;;;;15.20;2.50;;;4.90;99.90;;;;;;4971779;28;20102;-79
2021/01/22 01:25:23;;;;;;;12.13;2.50;;;4.90;99.90;;;;;;4954428;28;20019;-79
2021/01/22 01:27:49;;;;;;;11.07;2.33;;;4.90;99.90;;;;;;4952561;29;20481;-79
2021/01/22 01:30:15;;;;;;;6.40;2.05;;;4.90;99.90;;;;;;4954115;29;20515;-79
2021/01/22 01:32:40;;;;;;;8.23;2.10;;;4.80;99.90;;;;;;4954087;29;20036;-79
2021/01/22 01:35:07;;;;;;;13.25;2.10;;;4.80;99.90;;;;;;4953875;29;20031;-79
2021/01/22 01:37:32;;;;;;;14.35;2.22;;;4.80;99.90;;;;;;4953712;29;20031;-79
2021/01/22 01:39:58;;;;;;;10.27;2.92;;;4.80;99.90;;;;;;4952556;29;20031;-79
2021/01/22 01:42:25;;;;;;;11.13;2.95;;;4.80;99.90;;;;;;4953590;29;20034;-79
2021/01/22 01:44:50;;;;;;;8.15;2.30;;;4.80;99.90;;;;;;4952268;29;20075;-79
2021/01/22 01:47:16;;;;;;;23.40;2.85;;;4.80;99.90;;;;;;4952510;29;20031;-80
2021/01/22 01:49:42;;;;;;;8.43;2.28;;;4.70;99.90;;;;;;4953635;29;20023;-79
2021/01/22 01:52:07;;;;;;;14.05;2.58;;;4.70;99.90;;;;;;4952331;29;20117;-80
2021/01/22 01:54:33;;;;;;;9.20;3.10;;;4.70;99.90;;;;;;4953485;29;20031;-79
2021/01/22 01:56:59;;;;;;;13.50;3.10;;;4.70;99.90;;;;;;4953418;29;20031;-80
2021/01/22 01:59:25;;;;;;;12.98;3.15;;;4.70;99.90;;;;;;4953459;29;20155;-79
2021/01/22 02:01:52;;;;;;;13.38;3.17;;;4.70;99.90;;;;;;4953479;29;20106;-80
2021/01/22 02:04:17;;;;;;;10.65;3.10;;;4.70;99.90;;;;;;4952082;29;20028;-79
2021/01/22 02:06:43;;;;;;;15.25;3.65;;;4.70;99.90;;;;;;4953524;29;20039;-80
2021/01/22 02:09:09;;;;;;;18.35;4.30;;;4.60;99.90;;;;;;4953489;29;20106;-80
2021/01/22 02:11:35;;;;;;;10.20;3.50;;;4.60;99.90;;;;;;4951994;29;20171;-79
2021/01/22 02:14:01;;;;;;;10.68;4.32;;;4.60;99.90;;;;;;4952795;29;20027;-80
2021/01/22 02:16:28;;;;;;;8.68;3.38;;;4.70;99.90;;;;;;4953341;29;20122;-79
2021/01/22 02:18:54;;;;;;;9.23;3.40;;;4.50;99.90;;;;;;4953339;29;20476;-79
2021/01/22 02:21:33;;;;;;;15.35;4.82;;;4.50;99.90;;;;;;4953397;29;20031;-79
2021/01/22 02:24:13;;;;;;;7.88;4.25;;;4.50;99.90;;;;;;4959902;28;20102;-79
2021/01/22 02:26:49;;;;;;;10.00;4.18;;;4.50;99.90;;;;;;4972663;28;20038;-79
2021/01/22 02:29:16;;;;;;;10.75;4.03;;;4.50;99.90;;;;;;4972568;28;20031;-79
2021/01/22 02:31:44;;;;;;;11.48;3.97;;;4.50;99.90;;;;;;4971210;28;20450;-79
2021/01/22 02:34:14;;;;;;;24.42;6.47;;;4.50;99.90;;;;;;4971062;28;20118;-79
2021/01/22 02:36:42;;;;;;;11.55;4.03;;;4.50;99.90;;;;;;4975699;28;20038;-79
2021/01/22 02:39:11;;;;;;;14.00;3.88;;;4.50;99.90;;;;;;4976140;28;20077;-79
2021/01/22 02:41:40;;;;;;;11.68;3.72;;;4.50;99.90;;;;;;4974624;28;20656;-79
2021/01/22 02:44:08;;;;;;;8.23;3.60;;;4.50;99.90;;;;;;4975770;28;20023;-79
2021/01/22 02:46:35;;;;;;;10.20;3.50;;;4.50;99.90;;;;;;4975980;28;20110;-79
2021/01/22 02:49:01;;;;;;;12.30;4.18;;;4.50;99.90;;;;;;4975917;28;20035;-79
2021/01/22 02:51:26;;;;;;;8.10;4.60;;;4.40;99.90;;;;;;4975890;28;20082;-80
2021/01/22 02:53:52;;;;;;;7.38;3.42;;;4.50;99.90;;;;;;4974275;28;20026;-79
2021/01/22 02:56:37;;;;;;;8.63;4.13;;;4.50;99.90;;;;;;4974315;28;20475;-80
2021/01/22 02:59:11;;;;;;;9.40;4.15;;;4.50;99.90;;;;;;4975813;28;20035;-80
2021/01/22 03:01:48;;;;;;;6.78;3.90;;;4.50;99.90;;;;;;4975713;28;20026;-80
2021/01/22 03:04:15;;;;;;;8.68;4.40;;;4.50;99.90;;;;;;4974283;28;20479;-80
2021/01/22 03:06:44;;;;;;;8.73;4.50;;;4.50;99.90;;;;;;4975538;28;20031;-80
2021/01/22 03:09:17;;;;;;;12.48;3.25;;;4.50;99.90;;;;;;4974345;28;20086;-79
2021/01/22 03:11:44;;;;;;;10.13;4.13;;;4.50;99.90;;;;;;4974263;28;20039;-79
2021/01/22 03:14:12;;;;;;;11.82;3.47;;;4.40;99.90;;;;;;4975465;28;20026;-79
2021/01/22 03:16:37;;;;;;;13.38;3.28;;;4.40;99.90;;;;;;4975050;28;20058;-79
2021/01/22 03:19:04;;;;;;;15.93;2.90;;;4.30;99.90;;;;;;4974008;28;20023;-79
2021/01/22 03:21:30;;;;;;;9.13;3.13;;;4.30;99.90;;;;;;4975432;28;20039;-79
2021/01/22 03:23:56;;;;;;;6.70;1.80;;;4.20;99.90;;;;;;4967352;28;20096;-79
2021/01/22 03:26:22;;;;;;;7.75;1.67;;;4.10;99.90;;;;;;4955942;28;20020;-78
2021/01/22 03:28:48;;;;;;;8.82;2.03;;;4.10;99.90;;;;;;4956035;28;20086;-79
2021/01/22 03:31:13;;;;;;;14.23;3.00;;;4.10;99.90;;;;;;4954676;29;20503;-79
2021/01/22 03:33:39;;;;;;;8.57;2.05;;;4.10;99.90;;;;;;4954398;28;20078;-79
2021/01/22 03:36:06;;;;;;;9.82;2.22;;;4.10;99.90;;;;;;4954505;28;20508;-79
2021/01/22 03:38:32;;;;;;;12.90;2.15;;;4.10;99.90;;;;;;4955841;28;20479;-79
2021/01/22 03:40:57;;;;;;;10.93;2.40;;;4.00;99.90;;;;;;4955769;28;20471;-79
2021/01/22 03:43:23;;;;;;;14.27;2.45;;;4.00;99.90;;;;;;4954463;28;20053;-78
2021/01/22 03:45:49;;;;;;;6.95;2.28;;;4.00;99.90;;;;;;4955621;28;20023;-79
2021/01/22 03:48:14;;;;;;;18.60;2.97;;;4.00;99.90;;;;;;4953737;28;20114;-79
2021/01/22 03:50:40;;;;;;;8.88;2.42;;;4.00;99.90;;;;;;4954477;28;20468;-79
2021/01/22 03:53:05;;;;;;;9.82;2.47;;;3.90;99.90;;;;;;4955616;28;20475;-79
2021/01/22 03:55:31;;;;;;;12.30;3.15;;;3.90;99.90;;;;;;4955365;28;20516;-78
2021/01/22 03:57:56;;;;;;;7.18;1.65;;;3.90;99.90;;;;;;4954033;28;20028;-79
2021/01/22 04:00:22;;;;;;;13.65;2.03;;;3.80;99.90;;;;;;4953584;28;20376;-77
2021/01/22 04:02:47;;;;;;;6.80;1.67;;;3.80;99.90;;;;;;4953714;29;20117;-78
2021/01/22 04:05:13;;;;;;;7.53;1.70;;;3.80;99.90;;;;;;4955280;28;20024;-78
2021/01/22 04:07:39;;;;;;;6.07;1.63;;;3.80;99.90;;;;;;4955087;28;20043;-78
2021/01/22 04:10:06;;;;;;;11.38;2.22;;;3.80;99.90;;;;;;4954021;29;20039;-78
2021/01/22 04:12:33;;;;;;;14.73;2.53;;;3.80;99.90;;;;;;4955040;28;20114;-78
2021/01/22 04:14:59;;;;;;;14.00;2.03;;;3.80;99.90;;;;;;4953568;28;20063;-79
2021/01/22 04:17:24;;;;;;;13.50;2.28;;;3.80;99.90;;;;;;4955033;28;20023;-79
2021/01/22 04:19:50;;;;;;;7.13;1.90;;;3.70;99.90;;;;;;4955021;28;20023;-79
2021/01/22 04:22:15;;;;;;;11.48;2.10;;;3.70;99.90;;;;;;4954888;28;20399;-78
2021/01/22 04:24:41;;;;;;;13.45;2.45;;;3.70;99.90;;;;;;4965834;28;20035;-78
2021/01/22 04:27:07;;;;;;;14.52;2.83;;;3.70;99.90;;;;;;4974183;28;20033;-78
2021/01/22 04:29:32;;;;;;;13.07;2.15;;;3.70;99.90;;;;;;4972699;28;20030;-79
2021/01/22 04:31:58;;;;;;;11.82;2.70;;;3.70;99.90;;;;;;4973969;28;20038;-78
2021/01/22 04:34:23;;;;;;;9.98;2.53;;;3.70;99.90;;;;;;4972632;28;20247;-78
2021/01/22 04:36:49;;;;;;;12.77;1.98;;;3.70;99.90;;;;;;4972626;28;20046;-79
2021/01/22 04:39:15;;;;;;;6.63;1.20;;;3.70;99.90;;;;;;4973967;28;20423;-78
2021/01/22 04:41:40;;;;;;;17.20;2.03;;;3.70;99.90;;;;;;4972582;28;20026;-78
2021/01/22 04:44:06;;;;;;;9.05;2.00;;;3.70;99.90;;;;;;4973517;28;20037;-78
2021/01/22 04:46:36;;;;;;;11.18;1.58;;;3.60;99.90;;;;;;4973853;28;20073;-78
2021/01/22 04:49:03;;;;;;;19.13;2.00;;;3.60;99.90;;;;;;4972480;28;20027;-78
2021/01/22 04:51:33;;;;;;;8.00;1.42;;;3.60;99.90;;;;;;4973773;28;20403;-78
2021/01/22 04:54:11;;;;;;;15.32;1.33;;;3.60;99.90;;;;;;4973500;28;20031;-78
2021/01/22 04:56:43;;;;;;;11.57;1.50;;;3.60;99.90;;;;;;4973519;28;20503;-78
2021/01/22 04:59:15;;;;;;;10.05;1.45;;;3.50;99.90;;;;;;4971398;28;20446;-78
2021/01/22 05:01:42;;;;;;;12.65;1.48;;;3.50;99.90;;;;;;4972263;28;20023;-78
2021/01/22 05:04:08;;;;;;;8.27;1.88;;;3.50;99.90;;;;;;4973371;28;20391;-78
2021/01/22 05:06:34;;;;;;;4.88;1.08;;;3.60;99.90;;;;;;4972994;28;20133;-77
2021/01/22 05:09:00;;;;;;;15.05;1.63;;;3.60;99.90;;;;;;4973420;28;20113;-78
2021/01/22 05:11:25;;;;;;;14.55;2.03;;;3.70;99.90;;;;;;4973380;28;20125;-78
2021/01/22 05:13:51;;;;;;;25.48;2.25;;;3.70;99.90;;;;;;4973152;28;20190;-78
2021/01/22 05:16:17;;;;;;;18.35;1.77;;;3.70;99.90;;;;;;4973281;28;20723;-78
2021/01/22 05:18:43;;;;;;;12.43;1.73;;;3.70;99.90;;;;;;4973291;28;20110;-78
2021/01/22 05:21:11;;;;;;;13.40;1.42;;;3.80;99.90;;;;;;4971925;28;20019;-78
2021/01/22 05:23:41;;;;;;;5.57;1.45;;;3.80;99.90;;;;;;4971809;28;20059;-78
2021/01/22 05:26:12;;;;;;;10.80;1.30;;;3.90;99.90;;;;;;4973170;28;20109;-78
2021/01/22 05:28:48;;;;;;;19.38;1.75;;;3.90;99.90;;;;;;4973234;28;20026;-77
2021/01/22 05:31:15;;;;;;;11.55;1.70;;;3.90;99.90;;;;;;4971859;28;20027;-77
2021/01/22 05:33:53;;;;;;;12.95;1.77;;;4.00;99.90;;;;;;4972946;28;20033;-78
2021/01/22 05:36:24;;;;;;;22.00;2.92;;;4.00;99.90;;;;;;4973185;28;20495;-78
2021/01/22 05:38:51;;;;;;;13.73;1.50;;;4.10;99.90;;;;;;4973234;28;20034;-78
2021/01/22 05:41:17;;;;;;;8.35;1.52;;;4.00;99.90;;;;;;4973100;28;20094;-78
2021/01/22 05:43:43;;;;;;;10.30;1.70;;;4.00;99.90;;;;;;4972771;28;20122;-77
2021/01/22 05:46:13;;;;;;;17.73;2.50;;;4.00;99.90;;;;;;4973093;28;20037;-78
2021/01/22 05:48:39;;;;;;;16.10;2.20;;;4.00;99.90;;;;;;4971867;28;20023;-78
2021/01/22 05:51:06;;;;;;;25.30;2.33;;;4.00;99.90;;;;;;4973088;28;20077;-77
2021/01/22 05:53:31;;;;;;;15.73;2.03;;;4.00;99.90;;;;;;4973023;28;20113;-77
2021/01/22 05:56:09;;;;;;;21.67;2.33;;;4.00;99.90;;;;;;4972742;28;20062;-77
2021/01/22 05:58:36;;;;;;;28.92;2.72;;;4.10;99.90;;;;;;4973033;28;20031;-78
2021/01/22 06:01:04;;;;;;;21.65;3.20;;;4.10;99.90;;;;;;4971864;28;20070;-78
2021/01/22 06:03:29;;;;;;;21.35;3.55;;;4.10;99.90;;;;;;4972970;28;20027;-78
2021/01/22 06:05:55;;;;;;;24.80;2.60;;;4.10;99.90;;;;;;4971446;28;20054;-78
2021/01/22 06:08:21;;;;;;;29.83;4.35;;;4.10;99.90;;;;;;4971238;28;20023;-77
2021/01/22 06:10:50;;;;;;;18.48;3.83;;;4.20;99.90;;;;;;4974952;28;20065;-77
2021/01/22 06:13:22;;;;;;;26.05;3.20;;;4.20;99.90;;;;;;4976583;28;20422;-77
2021/01/22 06:15:49;;;;;;;43.72;3.55;;;4.30;99.90;;;;;;4976560;28;20019;-78
2021/01/22 06:18:19;;;;;;;33.50;4.20;;;4.30;99.90;;;;;;4976662;28;20046;-78
2021/01/22 06:20:47;;;;;;;33.53;3.92;;;4.30;99.90;;;;;;4975180;28;20027;-77
2021/01/22 06:23:14;;;;;;;32.33;4.70;;;4.40;99.90;;;;;;4974187;28;20027;-77
2021/01/22 06:25:43;;;;;;;35.40;5.80;;;4.40;99.90;;;;;;4957048;28;20028;-78
2021/01/22 06:28:12;;;;;;;31.20;3.28;;;4.50;99.90;;;;;;4957355;28;20031;-77
2021/01/22 06:30:42;;;;;;;50.90;4.95;;;4.50;99.90;;;;;;4957656;28;20027;-77
2021/01/22 06:33:08;;;;;;;43.33;4.72;;;4.50;99.90;;;;;;4955806;28;20027;-77
2021/01/22 06:35:35;;;;;;;32.25;3.78;;;4.50;99.90;;;;;;4955597;28;20496;-78
2021/01/22 06:38:02;;;;;;;57.00;4.78;;;4.60;99.90;;;;;;4955610;29;20043;-78
2021/01/22 06:40:28;;;;;;;45.28;4.68;;;4.60;99.90;;;;;;4956988;28;20135;-78
2021/01/22 06:42:55;;;;;;;33.25;4.50;;;4.60;99.90;;;;;;4955511;29;20027;-78
2021/01/22 06:45:23;;;;;;;45.28;3.65;;;4.50;99.90;;;;;;4956559;28;20103;-78
2021/01/22 06:48:00;;;;;;;43.60;4.20;;;4.50;99.90;;;;;;4955456;29;20480;-78
2021/01/22 06:50:26;;;;;;;49.13;5.68;;;4.60;99.90;;;;;;4955406;29;20035;-78
2021/01/22 06:53:10;;;;;;;48.92;4.75;;;4.60;99.90;;;;;;4955329;29;20492;-78
2021/01/22 06:55:51;;;;;;;38.85;4.95;;;4.60;99.90;;;;;;4955116;29;20039;-78
2021/01/22 06:58:26;;;;;;;38.28;4.60;;;4.50;99.90;;;;;;4956436;28;20027;-77
2021/01/22 07:00:53;;;;;;;49.42;8.10;;;4.50;99.90;;;;;;4956431;28;20391;-78
2021/01/22 07:03:37;;;;;;;39.95;4.78;;;4.50;99.90;;;;;;4956406;28;20042;-78
2021/01/22 07:06:07;;;;;;;28.45;4.15;;;4.40;99.90;;;;;;4954978;29;20071;-77
2021/01/22 07:08:53;;;;;;;51.10;5.70;;;4.40;99.90;;;;;;4955887;28;20484;-78
2021/01/22 07:11:20;;;;;;;46.92;6.28;;;4.40;99.90;;;;;;4956106;28;20476;-78
2021/01/22 07:13:46;;;;;;;49.95;5.78;;;4.40;99.90;;;;;;4956006;28;20285;-77
2021/01/22 07:16:17;;;;;;;41.15;5.18;;;4.30;99.90;;;;;;4956155;28;20102;-77
2021/01/22 07:18:44;;;;;;;64.57;5.03;;;4.40;99.90;;;;;;4956128;28;20023;-78
2021/01/22 07:21:27;;;;;;;70.43;7.15;;;4.30;99.90;;;;;;4955478;28;20023;-78
2021/01/22 07:23:58;;;;;;;37.33;4.95;;;4.30;99.90;;;;;;4957269;28;20136;-77
2021/01/22 07:26:30;;;;;;;58.65;5.30;;;4.20;99.90;;;;;;4954755;29;20043;-77
2021/01/22 07:28:55;;;;;;;54.13;5.75;;;4.20;99.90;;;;;;4956066;28;20035;-78
2021/01/22 07:32:01;;;;;;;52.45;5.57;;;4.10;99.90;;;;;;4955897;29;20027;-77
2021/01/22 07:34:49;;;;;;;37.15;4.40;;;4.00;99.90;;;;;;4970559;28;20028;-78
2021/01/22 07:37:20;;;;;;;28.02;4.13;;;3.90;99.90;;;;;;4955788;28;20028;-78
2021/01/22 07:39:46;;;;;;;33.58;4.93;;;3.90;99.90;;;;;;4954462;29;20019;-77
2021/01/22 07:42:17;;;;;;;41.08;4.70;;;3.80;99.90;;;;;;4955594;28;20485;-77
2021/01/22 07:44:53;;;;;;;34.60;4.55;;;3.70;99.90;;;;;;4955508;28;20016;-77
2021/01/22 07:47:26;;;;;;;34.17;5.47;;;3.70;99.90;;;;;;4955703;28;20031;-78
2021/01/22 07:50:12;;;;;;;66.05;5.57;;;3.80;99.90;;;;;;4955579;28;20031;-78
2021/01/22 07:52:40;;;;;;;94.07;9.55;;;3.80;99.90;;;;;;4945085;28;20043;-78
2021/01/22 07:55:16;;;;;;;64.65;6.32;;;3.90;99.90;;;;;;4955292;28;20031;-78
2021/01/22 07:57:42;;;;;;;58.75;5.57;;;4.10;99.90;;;;;;4955444;29;20074;-78
2021/01/22 08:00:10;;;;;;;56.28;7.07;;;4.10;99.90;;;;;;4955351;28;20058;-78
2021/01/22 08:02:36;;;;;;;48.63;6.13;;;4.30;99.90;;;;;;4969049;28;20035;-78
2021/01/22 08:05:07;;;;;;;57.10;6.68;;;4.40;99.90;;;;;;4972848;28;20054;-78
2021/01/22 08:07:35;;;;;;;51.28;7.05;;;4.40;99.90;;;;;;4972726;28;20126;-78
2021/01/22 08:10:02;;;;;;;47.97;6.25;;;4.40;99.90;;;;;;4972966;28;20035;-79
2021/01/22 08:12:28;;;;;;;47.85;5.75;;;4.50;99.90;;;;;;4972953;28;20042;-78
2021/01/22 08:14:53;;;;;;;39.83;6.70;;;4.50;99.90;;;;;;4974062;28;20490;-78
2021/01/22 08:17:19;;;;;;;54.95;7.28;;;4.60;99.90;;;;;;4972939;28;20030;-77
2021/01/22 08:19:45;;;;;;;44.97;6.30;;;4.60;99.90;;;;;;4972934;28;20031;-77
2021/01/22 08:22:17;;;;;;;49.90;5.70;;;4.60;99.90;;;;;;4974055;28;20019;-76
2021/01/22 08:24:50;;;;;;;38.17;5.28;;;4.60;99.90;;;;;;4972548;28;20023;-76
2021/01/22 08:27:19;;;;;;;62.27;5.77;;;4.60;99.90;;;;;;4974173;28;20034;-77
2021/01/22 08:29:45;;;;;;;50.60;5.40;;;4.60;99.90;;;;;;4974004;28;20679;-77
2021/01/22 08:32:12;;;;;;;41.63;6.57;;;4.60;99.90;;;;;;4972772;28;20057;-77
2021/01/22 08:34:38;;;;;;;39.38;6.90;;;4.50;99.90;;;;;;4973676;28;20023;-76
2021/01/22 08:37:07;;;;;;;36.08;5.78;;;4.50;99.90;;;;;;4972644;28;20558;-78
2021/01/22 08:39:55;;;;;;;51.45;6.07;;;4.50;99.90;;;;;;4973814;28;20475;-77
2021/01/22 08:42:21;;;;;;;55.42;6.82;;;4.60;99.90;;;;;;4973884;28;20078;-77
2021/01/22 08:44:55;;;;;;;50.05;6.00;;;4.60;99.90;;;;;;4972355;28;20034;-77
2021/01/22 08:47:21;;;;;;;42.75;6.57;;;4.60;99.90;;;;;;4988729;28;20479;-78
2021/01/22 08:50:01;;;;;;;48.33;5.88;;;4.60;99.90;;;;;;4972683;28;20034;-78
2021/01/22 08:52:27;;;;;;;46.15;6.88;;;4.70;99.90;;;;;;4972138;28;20113;-78
2021/01/22 08:54:56;;;;;;;38.90;6.05;;;4.80;99.90;;;;;;4972407;28;20027;-76
2021/01/22 08:57:22;;;;;;;47.75;6.13;;;4.80;99.90;;;;;;4973725;28;20030;-78
2021/01/22 08:59:53;;;;;;;50.13;6.32;;;4.80;99.90;;;;;;4972792;28;20027;-77
2021/01/22 09:02:35;;;;;;;36.38;5.25;;;4.90;99.90;;;;;;4972392;28;20540;-77
2021/01/22 09:05:10;;;;;;;37.38;5.30;;;4.90;99.90;;;;;;4971889;28;20536;-78
2021/01/22 09:07:35;;;;;;;57.60;7.00;;;5.00;99.90;;;;;;4973341;28;20054;-77
2021/01/22 09:10:02;;;;;;;42.00;5.43;;;5.00;99.90;;;;;;4973299;28;20508;-78
2021/01/22 09:12:34;;;;;;;37.83;5.55;;;5.00;99.90;;;;;;4973184;28;20038;-78
2021/01/22 09:15:13;;;;;;;67.30;6.55;;;4.90;99.90;;;;;;4971726;28;20537;-77
2021/01/22 09:17:45;;;;;;;40.92;5.20;;;4.90;99.90;;;;;;4972044;28;20026;-78
2021/01/22 09:20:21;;;;;;;38.05;5.55;;;4.80;99.90;;;;;;4971502;28;20029;-77
2021/01/22 09:22:49;;;;;;;51.05;5.72;;;4.80;99.90;;;;;;4982437;28;20221;-77
2021/01/22 09:25:17;;;;;;;52.60;6.57;;;4.80;99.90;;;;;;4972633;28;20027;-77
2021/01/22 09:27:44;;;;;;;43.95;6.80;;;4.90;99.90;;;;;;4971571;28;20439;-78
2021/01/22 09:30:15;;;;;;;46.60;6.40;;;4.90;99.90;;;;;;4971777;28;20029;-78
2021/01/22 09:32:45;;;;;;;46.03;5.55;;;4.90;99.90;;;;;;4972753;28;20031;-78
2021/01/22 09:35:10;;;;;;;55.47;6.47;;;5.00;99.90;;;;;;4971474;28;20027;-78
2021/01/22 09:37:36;;;;;;;56.53;6.25;;;5.00;99.90;;;;;;4971050;28;20038;-78
2021/01/22 09:40:03;;;;;;;37.53;5.70;;;5.00;99.90;;;;;;4971565;28;20105;-78
2021/01/22 09:42:29;;;;;;;42.05;7.25;;;5.00;99.90;;;;;;4972508;28;20456;-78
2021/01/22 09:44:54;;;;;;;40.45;5.10;;;4.90;99.90;;;;;;4973965;28;20097;-77
2021/01/22 09:47:20;;;;;;;44.17;5.97;;;4.90;99.90;;;;;;4990197;28;20085;-78
2021/01/22 09:49:46;;;;;;;51.97;7.32;;;4.90;99.90;;;;;;4982805;28;20403;-78
2021/01/22 09:52:12;;;;;;;45.28;6.00;;;4.90;99.90;;;;;;4977811;28;20062;-77
2021/01/22 09:54:38;;;;;;;52.35;7.15;;;5.00;99.90;;;;;;4978754;28;20140;-78
2021/01/22 09:57:03;;;;;;;44.92;6.07;;;5.00;99.90;;;;;;4979299;28;20113;-77
2021/01/22 09:59:29;;;;;;;40.80;6.60;;;5.10;99.90;;;;;;4979200;28;20027;-77
2021/01/22 10:01:54;;;;;;;56.15;6.30;;;5.20;99.90;;;;;;4977953;28;20118;-77
2021/01/22 10:04:20;;;;;;;35.63;5.72;;;5.30;99.90;;;;;;4979158;28;20382;-78
2021/01/22 10:06:45;;;;;;;57.03;8.13;;;5.30;99.90;;;;;;4978681;28;20034;-77
2021/01/22 10:09:11;;;;;;;41.05;6.75;;;5.30;99.90;;;;;;4979177;28;20031;-78
2021/01/22 10:11:40;;;;;;;34.38;5.20;;;5.30;99.90;;;;;;4977754;28;20043;-78
2021/01/22 10:14:06;;;;;;;52.95;6.80;;;5.20;99.90;;;;;;4977733;28;20034;-78
2021/01/22 10:16:33;;;;;;;46.08;5.75;;;5.20;99.90;;;;;;4977846;28;20023;-79
2021/01/22 10:18:59;;;;;;;38.63;7.45;;;5.10;99.90;;;;;;4977693;28;20050;-79
2021/01/22 10:21:25;;;;;;;52.75;6.43;;;5.10;99.90;;;;;;4977839;28;20078;-79
2021/01/22 10:23:52;;;;;;;43.95;6.30;;;5.10;99.90;;;;;;4972936;28;20027;-79
2021/01/22 10:26:19;;;;;;;36.65;4.70;;;5.20;99.90;;;;;;4958406;28;20038;-78
2021/01/22 10:28:45;;;;;;;37.97;5.80;;;5.20;99.90;;;;;;4958479;28;20027;-80
2021/01/22 10:31:11;;;;;;;52.53;8.35;;;5.30;99.90;;;;;;4958455;28;20036;-79
2021/01/22 10:33:37;;;;;;;42.78;6.85;;;5.40;99.90;;;;;;4959311;28;20031;-78
2021/01/22 10:36:03;;;;;;;48.28;7.75;;;5.50;99.90;;;;;;4957868;28;20038;-79
2021/01/22 10:38:29;;;;;;;34.65;5.80;;;5.80;99.90;;;;;;4969101;28;20046;-78
2021/01/22 10:40:55;;;;;;;70.22;6.32;;;5.80;99.90;;;;;;4978880;28;20500;-79
2021/01/22 10:43:22;;;;;;;45.72;5.60;;;5.70;99.90;;;;;;4978814;28;20031;-78
2021/01/22 10:45:48;;;;;;;40.28;6.20;;;5.70;99.90;;;;;;4977353;28;20599;-79
2021/01/22 10:48:14;;;;;;;66.53;6.20;;;5.60;99.90;;;;;;4978553;28;20105;-78
2021/01/22 10:50:40;;;;;;;47.97;6.60;;;5.60;99.90;;;;;;4978755;28;20113;-79
2021/01/22 10:53:05;;;;;;;49.15;6.57;;;5.60;99.90;;;;;;4977464;28;20031;-78
2021/01/22 10:55:32;;;;;;;35.75;6.28;;;5.60;99.90;;;;;;4978162;28;20030;-79
2021/01/22 10:57:58;;;;;;;56.97;6.95;;;5.60;99.90;;;;;;4974397;28;20038;-78
2021/01/22 11:00:24;;;;;;;47.38;6.95;;;5.60;99.90;;;;;;4968545;28;20432;-79
2021/01/22 11:02:49;;;;;;;49.35;7.20;;;5.50;99.90;;;;;;4956047;29;20098;-79
2021/01/22 11:05:15;;;;;;;54.15;6.40;;;5.30;99.90;;;;;;4956064;28;20424;-78
2021/01/22 11:07:40;;;;;;;50.63;5.97;;;5.30;99.90;;;;;;4954879;28;20054;-79
2021/01/22 11:10:07;;;;;;;63.30;8.25;;;5.40;99.90;;;;;;4954905;28;20497;-79
2021/01/22 11:12:32;;;;;;;53.50;8.00;;;5.40;99.90;;;;;;4956238;28;20377;-79
2021/01/22 11:14:58;;;;;;;56.80;6.80;;;5.50;99.90;;;;;;4955727;28;20082;-79
2021/01/22 11:17:23;;;;;;;63.72;8.90;;;5.70;99.90;;;;;;4954782;29;20037;-79
2021/01/22 11:19:49;;;;;;;65.35;7.80;;;5.70;99.90;;;;;;4954965;28;20391;-79
2021/01/22 11:22:15;;;;;;;38.92;7.28;;;5.70;99.90;;;;;;4956151;28;20037;-79
2021/01/22 11:24:40;;;;;;;42.25;5.80;;;5.70;99.90;;;;;;4963788;28;20098;-79
2021/01/22 11:27:06;;;;;;;44.40;6.78;;;5.60;99.90;;;;;;4954695;28;20037;-79
2021/01/22 11:29:32;;;;;;;44.67;7.15;;;5.60;99.90;;;;;;4964205;28;20035;-79
2021/01/22 11:31:57;;;;;;;44.75;5.70;;;5.70;99.90;;;;;;4974272;28;20035;-79
2021/01/22 11:34:23;;;;;;;47.95;7.15;;;5.70;99.90;;;;;;4974117;28;20117;-79
2021/01/22 11:36:48;;;;;;;47.60;5.93;;;5.60;99.90;;;;;;4973715;28;20058;-79
2021/01/22 11:39:14;;;;;;;48.95;6.18;;;5.50;99.90;;;;;;4974976;28;20019;-79
2021/01/22 11:41:39;;;;;;;59.17;7.18;;;5.50;99.90;;;;;;4973587;28;20475;-78
2021/01/22 11:44:05;;;;;;;60.60;6.63;;;5.50;99.90;;;;;;4973378;28;20023;-79
2021/01/22 11:46:32;;;;;;;66.32;7.45;;;5.40;99.90;;;;;;4973737;28;20027;-79
2021/01/22 11:48:59;;;;;;;64.55;7.90;;;5.40;99.90;;;;;;4974965;28;20027;-79
2021/01/22 11:51:24;;;;;;;36.72;7.10;;;5.50;99.90;;;;;;4973427;28;20027;-79
2021/01/22 11:53:50;;;;;;;46.67;6.18;;;5.50;99.90;;;;;;4974618;28;20031;-79
2021/01/22 11:56:17;;;;;;;63.10;8.27;;;5.50;99.90;;;;;;4974565;28;20026;-79
2021/01/22 11:58:43;;;;;;;39.53;6.13;;;5.50;99.90;;;;;;4974674;28;20098;-79
2021/01/22 12:01:08;;;;;;;49.80;6.53;;;5.60;99.90;;;;;;4973233;28;20117;-79
2021/01/22 12:03:34;;;;;;;47.58;7.68;;;5.50;99.90;;;;;;4974608;28;20074;-79
2021/01/22 12:05:59;;;;;;;54.13;6.18;;;5.50;99.90;;;;;;4964627;28;20068;-79
2021/01/22 12:08:25;;;;;;;48.13;7.10;;;5.50;99.90;;;;;;4973821;28;20027;-79
2021/01/22 12:10:50;;;;;;;37.50;5.82;;;5.50;99.90;;;;;;4972803;28;20031;-79
2021/01/22 12:13:16;;;;;;;46.30;6.47;;;5.50;99.90;;;;;;4973170;28;20053;-79
2021/01/22 12:15:41;;;;;;;50.80;6.60;;;5.60;99.90;;;;;;4974183;28;20031;-79
2021/01/22 12:18:07;;;;;;;52.47;6.07;;;5.50;99.90;;;;;;4989282;28;20023;-79
2021/01/22 12:20:33;;;;;;;49.90;6.00;;;5.50;99.90;;;;;;4974159;28;20027;-79
2021/01/22 12:22:58;;;;;;;57.92;7.15;;;5.50;99.90;;;;;;4973102;28;20027;-79
2021/01/22 12:25:24;;;;;;;59.47;7.50;;;5.50;99.90;;;;;;4988838;28;20019;-80
2021/01/22 12:27:49;;;;;;;63.60;7.88;;;5.50;99.90;;;;;;4972815;28;20219;-79
2021/01/22 12:30:15;;;;;;;47.80;7.53;;;5.60;99.90;;;;;;4973017;28;20027;-80
2021/01/22 12:32:41;;;;;;;52.83;6.90;;;5.60;99.90;;;;;;4971708;28;20106;-79
2021/01/22 12:35:07;;;;;;;46.55;7.70;;;5.60;99.90;;;;;;4970121;28;20033;-79
2021/01/22 12:37:33;;;;;;;43.03;7.05;;;5.60;99.90;;;;;;4973684;28;20547;-79
2021/01/22 12:39:58;;;;;;;52.00;8.05;;;5.60;99.90;;;;;;4963746;28;20031;-79
2021/01/22 12:42:24;;;;;;;48.72;6.53;;;5.70;99.90;;;;;;4983586;28;20070;-78
2021/01/22 12:44:49;;;;;;;49.03;5.60;;;5.70;99.90;;;;;;4973488;28;20023;-78
2021/01/22 12:47:15;;;;;;;69.50;7.68;;;5.60;99.90;;;;;;4972499;28;20054;-80
2021/01/22 12:49:40;;;;;;;60.80;6.85;;;5.70;99.90;;;;;;4973594;28;20027;-79